createdAt,value
2019-02-22T00:00:09.286Z,7.90
2019-02-22T00:03:10.152Z,7.90
2019-02-22T00:06:10.708Z,7.80
2019-02-22T00:09:11.264Z,7.80
2019-02-22T00:12:11.631Z,7.90
2019-02-22T00:15:11.990Z,7.90
2019-02-22T00:18:12.549Z,7.90
2019-02-22T00:21:20.498Z,7.90
2019-02-22T00:24:20.896Z,7.80
2019-02-22T00:27:21.985Z,7.70
2019-02-22T00:30:23.294Z,7.90
2019-02-22T00:33:23.647Z,7.90
2019-02-22T00:36:24.136Z,7.90
2019-02-22T00:39:25.023Z,7.80
2019-02-22T00:42:25.919Z,7.80
2019-02-22T00:45:26.658Z,7.50
2019-02-22T00:48:27.085Z,7.20
2019-02-22T00:51:27.507Z,7.30
2019-02-22T00:54:28.331Z,7.40
2019-02-22T00:57:28.834Z,7.50
2019-02-22T01:00:29.957Z,7.60
2019-02-22T01:03:30.386Z,7.60
2019-02-22T01:06:30.716Z,7.60
2019-02-22T01:09:31.285Z,7.50
2019-02-22T01:12:32.098Z,7.50
2019-02-22T01:15:32.373Z,7.70
2019-02-22T01:18:33.005Z,7.70
2019-02-22T01:21:33.386Z,7.70
2019-02-22T01:24:34.072Z,7.80
2019-02-22T01:27:34.253Z,7.90
2019-02-22T01:30:35.273Z,7.90
2019-02-22T01:33:35.601Z,7.90
2019-02-22T01:36:35.869Z,7.90
2019-02-22T01:39:36.377Z,7.80
2019-02-22T01:42:36.874Z,8.00
2019-02-22T01:45:37.398Z,8.00
2019-02-22T01:48:37.857Z,8.00
2019-02-22T01:51:38.355Z,8.00
2019-02-22T01:54:38.689Z,8.00
2019-02-22T01:57:39.510Z,8.00
2019-02-22T02:00:40.565Z,8.00
2019-02-22T02:03:41.618Z,8.00
2019-02-22T02:06:42.764Z,8.00
2019-02-22T02:09:43.480Z,8.00
2019-02-22T02:12:44.324Z,7.90
2019-02-22T02:15:44.753Z,8.00
2019-02-22T02:18:45.021Z,7.90
2019-02-22T02:21:45.486Z,7.80
2019-02-22T02:24:45.916Z,7.70
2019-02-22T02:27:46.717Z,7.70
2019-02-22T02:30:47.043Z,7.80
2019-02-22T02:33:47.542Z,7.80
2019-02-22T02:36:48.023Z,7.90
2019-02-22T02:39:48.842Z,8.00
2019-02-22T02:42:49.317Z,8.00
2019-02-22T02:45:49.963Z,8.00
2019-02-22T02:48:50.773Z,8.00
2019-02-22T02:51:51.061Z,8.00
2019-02-22T02:54:51.523Z,8.10
2019-02-22T02:57:52.816Z,8.10
2019-02-22T03:00:53.495Z,8.00
2019-02-22T03:03:53.741Z,8.10
2019-02-22T03:07:13.491Z,8.20
2019-02-22T03:10:14.578Z,8.20
2019-02-22T03:13:15.811Z,8.10
2019-02-22T03:16:04.426Z,8.20
2019-02-22T03:19:12.374Z,8.10
2019-02-22T03:22:12.895Z,8.20
2019-02-22T03:25:13.313Z,8.10
2019-02-22T03:28:13.792Z,8.10
2019-02-22T03:31:14.884Z,8.00
2019-02-22T03:34:15.296Z,8.10
2019-02-22T03:37:16.187Z,8.10
2019-02-22T03:40:17.435Z,8.10
2019-02-22T03:43:18.591Z,8.20
2019-02-22T03:46:19.593Z,8.20
2019-02-22T03:49:20.007Z,8.20
2019-02-22T03:52:24.779Z,8.20
2019-02-22T03:55:25.678Z,8.30
2019-02-22T03:58:26.034Z,8.20
2019-02-22T04:01:26.306Z,8.20
2019-02-22T04:04:26.764Z,8.20
2019-02-22T04:07:27.534Z,8.30
2019-02-22T04:10:27.919Z,8.20
2019-02-22T04:13:28.414Z,8.30
2019-02-22T04:16:28.800Z,8.40
2019-02-22T04:19:29.075Z,8.30
2019-02-22T04:22:29.330Z,8.30
2019-02-22T04:25:29.714Z,8.30
2019-02-22T04:28:30.345Z,8.30
2019-02-22T04:31:31.534Z,8.30
2019-02-22T04:34:32.845Z,8.50
2019-02-22T04:37:33.146Z,8.60
2019-02-22T04:40:33.737Z,8.50
2019-02-22T04:43:34.015Z,8.30
2019-02-22T04:46:35.342Z,8.30
2019-02-22T04:49:23.884Z,8.30
2019-02-22T04:52:31.739Z,8.30
2019-02-22T04:55:32.782Z,8.40
2019-02-22T04:58:33.613Z,8.40
2019-02-22T05:01:34.354Z,8.30
2019-02-22T05:04:35.341Z,8.40
2019-02-22T05:07:35.837Z,8.50
2019-02-22T05:10:36.334Z,8.50
2019-02-22T05:13:36.969Z,8.40
2019-02-22T05:16:37.666Z,8.50
2019-02-22T05:19:26.270Z,8.50
2019-02-22T05:22:27.205Z,8.60
2019-02-22T05:25:27.598Z,8.60
2019-02-22T05:28:28.326Z,8.60
2019-02-22T05:31:28.778Z,8.50
2019-02-22T05:34:29.244Z,8.50
2019-02-22T05:37:30.490Z,8.50
2019-02-22T05:40:31.118Z,8.50
2019-02-22T05:43:31.754Z,8.50
2019-02-22T05:46:33.026Z,8.50
2019-02-22T05:49:33.450Z,8.60
2019-02-22T05:52:33.723Z,8.70
2019-02-22T05:55:34.790Z,8.70
2019-02-22T05:58:35.799Z,8.70
2019-02-22T06:01:36.824Z,8.60
2019-02-22T06:04:37.562Z,8.60
2019-02-22T06:07:38.354Z,8.60
2019-02-22T06:10:38.989Z,8.60
2019-02-22T06:13:39.674Z,8.70
2019-02-22T06:16:41.875Z,8.80
2019-02-22T06:19:42.698Z,8.70
2019-02-22T06:22:31.288Z,8.80
2019-02-22T06:28:46.689Z,8.80
2019-02-22T06:31:47.129Z,8.90
2019-02-22T06:34:47.531Z,8.80
2019-02-22T06:37:48.230Z,8.80
2019-02-22T06:40:48.664Z,8.70
2019-02-22T06:43:49.293Z,8.70
2019-02-22T06:46:49.822Z,8.60
2019-02-22T06:49:50.660Z,8.60
2019-02-22T06:52:51.293Z,8.50
2019-02-22T06:55:51.818Z,8.60
2019-02-22T06:58:52.401Z,8.70
2019-02-22T07:01:52.824Z,8.60
2019-02-22T07:04:53.170Z,8.60
2019-02-22T07:07:53.613Z,8.40
2019-02-22T07:10:55.808Z,8.40
2019-02-22T07:13:56.333Z,8.50
2019-02-22T07:16:56.998Z,8.50
2019-02-22T07:19:57.828Z,8.50
2019-02-22T07:22:58.621Z,8.50
2019-02-22T07:25:59.242Z,8.40
2019-02-22T07:28:59.674Z,8.40
2019-02-22T07:32:05.826Z,8.30
2019-02-22T07:35:02.707Z,8.50
2019-02-22T07:38:03.478Z,8.60
2019-02-22T07:41:03.752Z,8.60
2019-02-22T07:44:04.211Z,8.80
2019-02-22T07:47:04.592Z,8.80
2019-02-22T07:50:05.278Z,8.80
2019-02-22T07:53:05.929Z,8.80
2019-02-22T07:56:06.451Z,8.80
2019-02-22T07:59:07.281Z,8.50
2019-02-22T08:02:08.041Z,8.60
2019-02-22T08:05:09.276Z,8.50
2019-02-22T08:08:10.114Z,8.60
2019-02-22T08:11:10.929Z,8.60
2019-02-22T08:14:11.395Z,8.70
2019-02-22T08:17:14.630Z,8.70
2019-02-22T08:20:14.601Z,8.80
2019-02-22T08:23:15.157Z,8.60
2019-02-22T08:26:15.525Z,8.60
2019-02-22T08:29:15.855Z,8.90
2019-02-22T08:32:16.181Z,8.70
2019-02-22T08:35:16.897Z,8.80
2019-02-22T08:38:17.580Z,8.70
2019-02-22T08:41:18.126Z,8.80
2019-02-22T08:44:18.572Z,8.80
2019-02-22T08:47:18.952Z,8.70
2019-02-22T08:50:19.206Z,8.70
2019-02-22T08:53:19.942Z,8.60
2019-02-22T08:56:20.205Z,8.60
2019-02-22T08:59:20.629Z,8.60
2019-02-22T09:02:21.009Z,8.70
2019-02-22T09:05:21.385Z,8.80
2019-02-22T09:08:22.638Z,8.80
2019-02-22T09:11:23.873Z,8.80
2019-02-22T09:14:24.739Z,8.80
2019-02-22T09:17:25.185Z,9.00
2019-02-22T09:20:25.998Z,9.00
2019-02-22T09:23:26.538Z,8.90
2019-02-22T09:26:27.212Z,9.00
2019-02-22T09:29:27.860Z,9.30
2019-02-22T09:32:28.618Z,9.40
2019-02-22T09:35:29.047Z,9.10
2019-02-22T09:38:30.303Z,9.20
2019-02-22T09:41:30.888Z,9.20
2019-02-22T09:44:31.970Z,9.10
2019-02-22T09:47:32.363Z,8.90
2019-02-22T09:50:33.646Z,9.20
2019-02-22T09:53:33.901Z,9.50
2019-02-22T09:56:34.300Z,9.80
2019-02-22T09:59:34.740Z,10.10
2019-02-22T10:02:35.306Z,9.90
2019-02-22T10:05:35.950Z,9.50
2019-02-22T10:08:36.313Z,9.70
2019-02-22T10:11:36.653Z,9.80
2019-02-22T10:14:37.185Z,9.90
2019-02-22T10:17:37.955Z,10.00
2019-02-22T10:20:38.635Z,10.20
2019-02-22T10:23:39.107Z,10.40
2019-02-22T10:26:39.863Z,10.60
2019-02-22T10:29:40.905Z,10.50
2019-02-22T10:32:41.359Z,10.70
2019-02-22T10:35:42.244Z,10.70
2019-02-22T10:38:42.810Z,10.50
2019-02-22T10:41:43.322Z,10.80
2019-02-22T10:44:43.875Z,10.90
2019-02-22T10:47:44.326Z,11.20
2019-02-22T10:50:45.518Z,11.40
2019-02-22T10:53:45.942Z,11.40
2019-02-22T10:56:46.321Z,11.40
2019-02-22T10:59:46.793Z,11.40
2019-02-22T11:02:47.313Z,11.30
2019-02-22T11:05:48.366Z,11.00
2019-02-22T11:08:50.786Z,11.00
2019-02-22T11:11:51.313Z,11.30
2019-02-22T11:14:52.130Z,11.50
2019-02-22T11:17:52.837Z,11.10
2019-02-22T11:20:53.910Z,11.40
2019-02-22T11:23:54.521Z,11.50
2019-02-22T11:26:55.588Z,12.70
2019-02-22T11:29:57.233Z,15.80
2019-02-22T11:35:42.514Z,17.40
2019-02-22T11:38:43.906Z,18.00
2019-02-22T11:41:45.157Z,16.10
2019-02-22T11:44:46.700Z,15.40
2019-02-22T11:47:48.200Z,14.90
2019-02-22T11:50:49.814Z,13.90
2019-02-22T11:53:51.021Z,13.10
2019-02-22T11:56:51.283Z,12.30
2019-02-22T11:59:52.446Z,12.20
2019-02-22T12:02:53.493Z,11.90
2019-02-22T12:05:53.962Z,12.20
2019-02-22T12:08:55.154Z,12.20
2019-02-22T12:11:56.007Z,12.10
2019-02-22T12:14:56.904Z,12.00
2019-02-22T12:17:58.142Z,11.80
2019-02-22T12:20:59.694Z,11.80
2019-02-22T12:24:00.712Z,11.70
2019-02-22T12:27:01.128Z,11.70
2019-02-22T12:30:02.015Z,12.00
2019-02-22T12:33:02.945Z,12.00
2019-02-22T12:36:03.775Z,11.90
2019-02-22T12:39:05.360Z,11.80
2019-02-22T12:42:05.916Z,12.20
2019-02-22T12:45:06.307Z,12.00
2019-02-22T12:48:07.540Z,11.50
2019-02-22T12:51:08.205Z,11.70
2019-02-22T12:54:08.723Z,11.70
2019-02-22T12:57:09.085Z,11.90
2019-02-22T13:00:10.250Z,11.70
2019-02-22T13:03:10.614Z,11.90
2019-02-22T13:06:10.873Z,11.80
2019-02-22T13:09:11.344Z,11.60
2019-02-22T13:12:14.202Z,11.60
2019-02-22T13:15:14.850Z,11.40
2019-02-22T13:18:15.220Z,11.50
2019-02-22T13:21:15.522Z,11.60
2019-02-22T13:24:16.466Z,11.60
2019-02-22T13:27:16.817Z,11.70
2019-02-22T13:30:17.916Z,11.50
2019-02-22T13:33:18.712Z,11.70
2019-02-22T13:36:19.210Z,11.60
2019-02-22T13:39:19.537Z,11.90
2019-02-22T13:42:19.838Z,12.10
2019-02-22T13:45:26.540Z,12.10
2019-02-22T13:48:23.607Z,12.40
2019-02-22T13:51:24.298Z,12.70
2019-02-22T13:54:25.466Z,13.30
2019-02-22T13:57:26.556Z,14.10
2019-02-22T14:00:28.172Z,15.20
2019-02-22T14:03:28.973Z,14.90
2019-02-22T14:06:30.648Z,14.00
2019-02-22T14:09:31.826Z,13.60
2019-02-22T14:12:32.946Z,13.30
2019-02-22T14:15:38.139Z,13.10
2019-02-22T14:18:36.085Z,12.90
2019-02-22T14:21:37.098Z,12.80
2019-02-22T14:24:38.289Z,12.80
2019-02-22T14:27:39.639Z,12.90
2019-02-22T14:30:40.903Z,12.50
2019-02-22T14:33:41.246Z,12.50
2019-02-22T14:36:41.556Z,12.70
2019-02-22T14:39:41.853Z,12.80
2019-02-22T14:42:42.527Z,12.20
2019-02-22T14:45:49.245Z,12.30
2019-02-22T14:48:46.445Z,12.60
2019-02-22T14:51:47.333Z,12.90
2019-02-22T14:54:47.678Z,12.80
2019-02-22T14:57:48.281Z,12.50
2019-02-22T15:00:49.450Z,12.10
2019-02-22T15:03:50.224Z,12.00
2019-02-22T15:06:50.682Z,12.30
2019-02-22T15:09:51.230Z,12.30
2019-02-22T15:12:51.765Z,12.40
2019-02-22T15:16:11.399Z,11.60
2019-02-22T15:19:17.130Z,12.10
2019-02-22T15:22:17.512Z,12.10
2019-02-22T15:25:18.795Z,12.00
2019-02-22T15:28:20.337Z,11.50
2019-02-22T15:31:08.962Z,11.90
2019-02-22T15:34:17.044Z,11.90
2019-02-22T15:37:18.284Z,11.90
2019-02-22T15:40:18.635Z,11.90
2019-02-22T15:43:19.371Z,11.70
2019-02-22T15:46:19.911Z,11.60
2019-02-22T15:49:20.618Z,11.60
2019-02-22T15:52:21.825Z,11.60
2019-02-22T15:55:22.853Z,11.70
2019-02-22T15:58:24.114Z,11.60
2019-02-22T16:01:24.624Z,11.50
2019-02-22T16:07:44.682Z,11.00
2019-02-22T16:10:42.419Z,11.10
2019-02-22T16:13:43.410Z,11.20
2019-02-22T16:16:43.922Z,11.50
2019-02-22T16:19:44.643Z,11.20
2019-02-22T16:22:45.839Z,11.50
2019-02-22T16:25:46.265Z,11.30
2019-02-22T16:28:47.008Z,11.10
2019-02-22T16:31:47.619Z,10.70
2019-02-22T16:34:48.506Z,10.60
2019-02-22T16:37:48.813Z,10.40
2019-02-22T16:40:49.497Z,10.20
2019-02-22T16:43:50.247Z,9.90
2019-02-22T16:46:50.791Z,9.80
2019-02-22T16:49:51.773Z,9.80
2019-02-22T16:52:53.127Z,9.70
2019-02-22T16:55:54.363Z,9.80
2019-02-22T16:58:55.198Z,9.70
2019-02-22T17:01:55.869Z,9.70
2019-02-22T17:04:56.089Z,9.60
2019-02-22T17:07:56.839Z,9.60
2019-02-22T17:10:57.588Z,9.40
2019-02-22T17:13:58.084Z,9.20
2019-02-22T17:16:58.782Z,9.10
2019-02-22T17:20:00.013Z,9.00
2019-02-22T17:23:00.726Z,8.80
2019-02-22T17:26:01.031Z,8.70
2019-02-22T17:29:02.369Z,8.60
2019-02-22T17:32:03.083Z,8.40
2019-02-22T17:35:03.506Z,8.20
2019-02-22T17:38:03.903Z,8.10
2019-02-22T17:41:05.333Z,8.00
2019-02-22T17:44:06.242Z,7.90
2019-02-22T17:47:06.727Z,7.80
2019-02-22T17:50:07.257Z,7.70
2019-02-22T17:52:57.559Z,7.60
2019-02-22T17:55:44.790Z,7.40
2019-02-22T17:58:33.733Z,7.40
2019-02-22T18:01:21.170Z,7.40
2019-02-22T18:04:08.142Z,7.30
2019-02-22T18:06:55.211Z,7.30
2019-02-22T18:09:42.657Z,7.30
2019-02-22T18:12:30.005Z,7.20
2019-02-22T18:15:17.920Z,7.20
2019-02-22T18:18:05.348Z,7.00
2019-02-22T18:20:52.746Z,6.90
2019-02-22T18:23:39.892Z,6.80
2019-02-22T18:26:27.086Z,6.70
2019-02-22T18:29:14.091Z,6.70
2019-02-22T18:32:01.466Z,6.70
2019-02-22T18:34:48.450Z,6.50
2019-02-22T18:37:35.876Z,6.50
2019-02-22T18:40:23.530Z,6.50
2019-02-22T18:43:10.229Z,6.40
2019-02-22T18:45:57.674Z,6.30
2019-02-22T18:48:44.982Z,6.30
2019-02-22T18:51:32.202Z,6.10
2019-02-22T18:54:19.494Z,6.00
2019-02-22T18:57:06.923Z,6.00
2019-02-22T18:59:54.139Z,6.00
2019-02-22T19:02:40.884Z,6.00
2019-02-22T19:05:28.288Z,6.00
2019-02-22T19:08:15.575Z,5.90
2019-02-22T19:11:02.592Z,5.90
2019-02-22T19:13:49.603Z,5.90
2019-02-22T19:16:36.646Z,5.80
2019-02-22T19:19:23.609Z,5.70
2019-02-22T19:22:10.889Z,5.60
2019-02-22T19:24:57.843Z,5.40
2019-02-22T19:27:46.459Z,5.50
2019-02-22T19:30:33.193Z,5.50
2019-02-22T19:33:20.114Z,5.50
2019-02-22T19:36:07.125Z,5.50
2019-02-22T19:38:54.253Z,5.50
2019-02-22T19:41:41.696Z,5.50
2019-02-22T19:44:28.705Z,5.40
2019-02-22T19:47:15.910Z,5.30
2019-02-22T19:50:04.017Z,5.30
2019-02-22T19:52:51.193Z,5.30
2019-02-22T19:55:38.211Z,5.30
2019-02-22T19:58:25.429Z,5.30
2019-02-22T20:01:12.588Z,5.30
2019-02-22T20:03:59.849Z,5.20
2019-02-22T20:06:47.073Z,5.20
2019-02-22T20:09:34.166Z,5.10
2019-02-22T20:12:21.172Z,5.00
2019-02-22T20:15:11.338Z,5.00
2019-02-22T20:17:58.150Z,4.80
2019-02-22T20:20:45.184Z,4.80
2019-02-22T20:23:32.831Z,4.50
2019-02-22T20:26:20.579Z,5.10
2019-02-22T20:29:07.929Z,5.40
2019-02-22T20:31:55.365Z,5.60
2019-02-22T20:34:42.793Z,5.70
2019-02-22T20:37:29.688Z,5.70
2019-02-22T20:40:16.979Z,5.60
2019-02-22T20:43:04.132Z,5.60
2019-02-22T20:45:51.719Z,5.60
2019-02-22T20:48:39.217Z,5.60
2019-02-22T20:51:26.926Z,5.50
2019-02-22T20:54:14.350Z,5.40
2019-02-22T20:57:02.199Z,5.40
2019-02-22T20:59:49.627Z,5.40
2019-02-22T21:02:37.245Z,5.40
2019-02-22T21:05:24.522Z,5.40
2019-02-22T21:08:11.942Z,5.30
2019-02-22T21:10:59.580Z,5.30
2019-02-22T21:13:47.198Z,5.20
2019-02-22T21:16:34.830Z,5.30
2019-02-22T21:19:22.191Z,5.30
2019-02-22T21:22:09.362Z,5.20
2019-02-22T21:24:56.389Z,5.10
2019-02-22T21:27:43.682Z,5.20
2019-02-22T21:30:31.500Z,5.10
2019-02-22T21:33:18.878Z,5.20
2019-02-22T21:36:06.298Z,5.20
2019-02-22T21:38:53.698Z,5.20
2019-02-22T21:41:40.979Z,5.10
2019-02-22T21:44:27.961Z,4.90
2019-02-22T21:47:15.199Z,4.90
2019-02-22T21:50:03.116Z,5.20
2019-02-22T21:52:50.444Z,5.40
2019-02-22T21:55:38.192Z,5.40
2019-02-22T21:58:25.619Z,5.50
2019-02-22T22:01:12.997Z,5.60
2019-02-22T22:04:00.386Z,5.50
2019-02-22T22:06:47.199Z,5.40
2019-02-22T22:09:34.722Z,5.30
2019-02-22T22:12:22.390Z,5.10
2019-02-22T22:15:11.746Z,5.20
2019-02-22T22:17:59.458Z,5.10
2019-02-22T22:20:46.901Z,5.20
2019-02-22T22:23:34.166Z,5.30
2019-02-22T22:26:21.478Z,5.40
2019-02-22T22:29:09.154Z,5.30
2019-02-22T22:31:56.414Z,5.40
2019-02-22T22:34:43.892Z,5.40
2019-02-22T22:37:31.022Z,5.40
2019-02-22T22:40:18.239Z,5.60
2019-02-22T22:43:05.953Z,5.70
2019-02-22T22:45:53.136Z,5.80
2019-02-22T22:48:50.197Z,5.70
2019-02-22T22:51:29.480Z,5.70
2019-02-22T22:54:16.780Z,5.80
2019-02-22T22:57:04.614Z,5.90
2019-02-22T22:59:52.443Z,5.90
2019-02-22T23:02:40.065Z,5.90
2019-02-22T23:05:27.386Z,6.00
2019-02-22T23:08:14.840Z,6.00
2019-02-22T23:11:02.870Z,5.90
2019-02-22T23:13:50.156Z,5.70
2019-02-22T23:16:37.514Z,5.70
2019-02-22T23:19:24.888Z,5.40
2019-02-22T23:22:12.540Z,5.40
2019-02-22T23:24:59.646Z,5.40
2019-02-22T23:27:46.949Z,5.30
2019-02-22T23:30:34.943Z,5.30
2019-02-22T23:33:22.534Z,5.20
2019-02-22T23:36:10.052Z,5.20
2019-02-22T23:38:56.854Z,5.20
2019-02-22T23:41:44.298Z,5.10
2019-02-22T23:44:31.894Z,5.10
2019-02-22T23:47:19.178Z,4.90
2019-02-22T23:50:07.952Z,4.90
2019-02-22T23:52:55.402Z,4.90
2019-02-22T23:55:42.439Z,4.90
2019-02-22T23:58:29.695Z,5.00
